Terminal Aerodrome Forecast
Issued by NWS

Home | Current Version | Previous Version | Text Only | Print | Product List | Glossary On
Versions: 1 2 3 4 5 6 7 8 9 10 11 12 13 14 15 16 17 18 19 20 21 22 23 24 25 26 27 28 29 30 31 32 33
000
FTPA31 PHFO 050900 AAB
TAFMKK
TAF AMD
PHMK 050902Z 0509/0606 35010KT P6SM VCSH SCT025 BKN050
      TEMPO 0509/0510 35012G18KT -RA BKN008
     FM051900 02012G20KT P6SM SCT025 SCT050=

USA.gov is the U.S. government's official web portal to all federal, state and local government web resources and services.